sensor_id;sensor_type;location;lat;lon;timestamp;P1;durP1;ratioP1;P2;durP2;ratioP2
19923;SDS011;10124;53.068;18.224;2023-02-15T00:00:43;172.47;;;71.80;;
19923;SDS011;10124;53.068;18.224;2023-02-15T00:03:29;224.20;;;76.07;;
19923;SDS011;10124;53.068;18.224;2023-02-15T00:05:57;198.00;;;71.83;;
19923;SDS011;10124;53.068;18.224;2023-02-15T00:08:25;176.60;;;69.77;;
19923;SDS011;10124;53.068;18.224;2023-02-15T00:11:02;154.73;;;67.80;;
19923;SDS011;10124;53.068;18.224;2023-02-15T00:13:34;201.13;;;73.73;;
19923;SDS011;10124;53.068;18.224;2023-02-15T00:16:03;164.40;;;72.27;;
19923;SDS011;10124;53.068;18.224;2023-02-15T00:18:34;151.30;;;67.83;;
19923;SDS011;10124;53.068;18.224;2023-02-15T00:21:03;159.23;;;70.33;;
19923;SDS011;10124;53.068;18.224;2023-02-15T00:23:33;114.37;;;57.47;;
19923;SDS011;10124;53.068;18.224;2023-02-15T00:28:34;138.77;;;62.90;;
19923;SDS011;10124;53.068;18.224;2023-02-15T00:31:03;199.73;;;70.00;;
19923;SDS011;10124;53.068;18.224;2023-02-15T00:33:34;273.00;;;79.40;;
19923;SDS011;10124;53.068;18.224;2023-02-15T00:36:04;130.20;;;61.83;;
19923;SDS011;10124;53.068;18.224;2023-02-15T00:38:35;168.23;;;70.43;;
19923;SDS011;10124;53.068;18.224;2023-02-15T00:41:05;267.87;;;82.37;;
19923;SDS011;10124;53.068;18.224;2023-02-15T00:43:33;109.60;;;59.70;;
19923;SDS011;10124;53.068;18.224;2023-02-15T00:46:03;155.03;;;68.57;;
19923;SDS011;10124;53.068;18.224;2023-02-15T00:48:32;243.03;;;72.73;;
19923;SDS011;10124;53.068;18.224;2023-02-15T00:51:00;222.27;;;72.73;;
19923;SDS011;10124;53.068;18.224;2023-02-15T00:53:28;106.70;;;58.77;;
19923;SDS011;10124;53.068;18.224;2023-02-15T00:55:57;105.10;;;54.33;;
19923;SDS011;10124;53.068;18.224;2023-02-15T00:58:26;113.40;;;58.47;;
19923;SDS011;10124;53.068;18.224;2023-02-15T01:00:54;113.30;;;56.03;;
19923;SDS011;10124;53.068;18.224;2023-02-15T01:03:22;114.10;;;59.27;;
19923;SDS011;10124;53.068;18.224;2023-02-15T01:05:50;151.30;;;65.87;;
19923;SDS011;10124;53.068;18.224;2023-02-15T01:08:18;141.07;;;57.70;;
19923;SDS011;10124;53.068;18.224;2023-02-15T01:10:47;113.20;;;57.33;;
19923;SDS011;10124;53.068;18.224;2023-02-15T01:13:17;100.87;;;52.50;;
19923;SDS011;10124;53.068;18.224;2023-02-15T01:15:44;131.13;;;57.43;;
19923;SDS011;10124;53.068;18.224;2023-02-15T01:18:12;113.90;;;51.53;;
19923;SDS011;10124;53.068;18.224;2023-02-15T01:20:41;178.17;;;61.10;;
19923;SDS011;10124;53.068;18.224;2023-02-15T01:23:08;149.80;;;57.20;;
19923;SDS011;10124;53.068;18.224;2023-02-15T01:25:36;193.17;;;60.50;;
19923;SDS011;10124;53.068;18.224;2023-02-15T01:28:04;194.47;;;62.27;;
19923;SDS011;10124;53.068;18.224;2023-02-15T01:30:32;169.23;;;60.57;;
19923;SDS011;10124;53.068;18.224;2023-02-15T01:33:00;132.53;;;56.97;;
19923;SDS011;10124;53.068;18.224;2023-02-15T01:35:30;162.07;;;58.13;;
19923;SDS011;10124;53.068;18.224;2023-02-15T01:37:58;149.77;;;58.03;;
19923;SDS011;10124;53.068;18.224;2023-02-15T01:40:26;172.20;;;58.63;;
19923;SDS011;10124;53.068;18.224;2023-02-15T01:42:55;129.80;;;56.83;;
19923;SDS011;10124;53.068;18.224;2023-02-15T01:45:24;163.83;;;59.33;;
19923;SDS011;10124;53.068;18.224;2023-02-15T01:50:30;101.20;;;52.40;;
19923;SDS011;10124;53.068;18.224;2023-02-15T01:53:09;121.60;;;56.00;;
19923;SDS011;10124;53.068;18.224;2023-02-15T01:56:01;138.07;;;58.30;;
19923;SDS011;10124;53.068;18.224;2023-02-15T01:58:35;124.83;;;56.07;;
19923;SDS011;10124;53.068;18.224;2023-02-15T02:01:04;122.97;;;58.90;;
19923;SDS011;10124;53.068;18.224;2023-02-15T02:06:03;105.97;;;52.30;;
19923;SDS011;10124;53.068;18.224;2023-02-15T02:08:31;105.63;;;54.47;;
19923;SDS011;10124;53.068;18.224;2023-02-15T02:11:00;102.37;;;51.63;;
19923;SDS011;10124;53.068;18.224;2023-02-15T02:13:27;114.20;;;55.70;;
19923;SDS011;10124;53.068;18.224;2023-02-15T02:18:51;113.20;;;56.07;;
19923;SDS011;10124;53.068;18.224;2023-02-15T02:21:49;117.40;;;56.27;;
19923;SDS011;10124;53.068;18.224;2023-02-15T02:27:30;121.27;;;58.00;;
19923;SDS011;10124;53.068;18.224;2023-02-15T02:38:11;123.30;;;57.97;;
19923;SDS011;10124;53.068;18.224;2023-02-15T02:43:40;108.00;;;52.67;;
19923;SDS011;10124;53.068;18.224;2023-02-15T02:46:24;111.63;;;53.87;;
19923;SDS011;10124;53.068;18.224;2023-02-15T02:48:57;120.00;;;55.60;;
19923;SDS011;10124;53.068;18.224;2023-02-15T02:51:25;112.60;;;52.67;;
19923;SDS011;10124;53.068;18.224;2023-02-15T02:53:54;121.30;;;54.90;;
19923;SDS011;10124;53.068;18.224;2023-02-15T02:59:08;110.53;;;52.73;;
19923;SDS011;10124;53.068;18.224;2023-02-15T03:02:00;112.07;;;52.63;;
19923;SDS011;10124;53.068;18.224;2023-02-15T03:04:47;113.80;;;53.27;;
19923;SDS011;10124;53.068;18.224;2023-02-15T03:07:25;113.03;;;52.53;;
19923;SDS011;10124;53.068;18.224;2023-02-15T03:09:57;101.43;;;50.63;;
19923;SDS011;10124;53.068;18.224;2023-02-15T03:12:31;115.13;;;54.63;;
19923;SDS011;10124;53.068;18.224;2023-02-15T03:15:27;123.77;;;53.97;;
19923;SDS011;10124;53.068;18.224;2023-02-15T03:18:16;101.20;;;51.40;;
19923;SDS011;10124;53.068;18.224;2023-02-15T03:20:47;109.20;;;53.00;;
19923;SDS011;10124;53.068;18.224;2023-02-15T03:23:17;108.80;;;52.77;;
19923;SDS011;10124;53.068;18.224;2023-02-15T03:25:49;120.70;;;55.47;;
19923;SDS011;10124;53.068;18.224;2023-02-15T03:28:45;119.73;;;54.37;;
19923;SDS011;10124;53.068;18.224;2023-02-15T03:31:13;103.50;;;50.13;;
19923;SDS011;10124;53.068;18.224;2023-02-15T03:33:50;128.50;;;55.27;;
19923;SDS011;10124;53.068;18.224;2023-02-15T03:39:24;135.57;;;56.53;;
19923;SDS011;10124;53.068;18.224;2023-02-15T03:42:05;152.60;;;62.47;;
19923;SDS011;10124;53.068;18.224;2023-02-15T03:44:36;137.33;;;58.93;;
19923;SDS011;10124;53.068;18.224;2023-02-15T03:47:35;134.77;;;58.50;;
19923;SDS011;10124;53.068;18.224;2023-02-15T03:52:58;167.60;;;63.17;;
19923;SDS011;10124;53.068;18.224;2023-02-15T03:55:29;143.83;;;62.33;;
19923;SDS011;10124;53.068;18.224;2023-02-15T03:57:58;160.47;;;64.23;;
19923;SDS011;10124;53.068;18.224;2023-02-15T04:00:49;155.40;;;63.53;;
19923;SDS011;10124;53.068;18.224;2023-02-15T04:03:51;154.30;;;63.30;;
19923;SDS011;10124;53.068;18.224;2023-02-15T04:06:26;150.53;;;63.60;;
19923;SDS011;10124;53.068;18.224;2023-02-15T04:08:54;141.37;;;60.13;;
19923;SDS011;10124;53.068;18.224;2023-02-15T04:11:40;165.73;;;65.03;;
19923;SDS011;10124;53.068;18.224;2023-02-15T04:14:09;140.57;;;59.00;;
19923;SDS011;10124;53.068;18.224;2023-02-15T04:16:55;140.47;;;61.50;;
19923;SDS011;10124;53.068;18.224;2023-02-15T04:19:24;150.70;;;62.93;;
19923;SDS011;10124;53.068;18.224;2023-02-15T04:22:10;143.43;;;60.07;;
19923;SDS011;10124;53.068;18.224;2023-02-15T04:24:57;134.47;;;60.67;;
19923;SDS011;10124;53.068;18.224;2023-02-15T04:27:42;165.30;;;65.90;;
19923;SDS011;10124;53.068;18.224;2023-02-15T04:30:12;154.70;;;64.10;;
19923;SDS011;10124;53.068;18.224;2023-02-15T04:32:41;153.40;;;64.97;;
19923;SDS011;10124;53.068;18.224;2023-02-15T04:35:09;159.93;;;63.93;;
19923;SDS011;10124;53.068;18.224;2023-02-15T04:37:38;148.73;;;61.50;;
19923;SDS011;10124;53.068;18.224;2023-02-15T04:40:07;127.07;;;56.07;;
19923;SDS011;10124;53.068;18.224;2023-02-15T04:42:37;142.13;;;60.67;;
19923;SDS011;10124;53.068;18.224;2023-02-15T04:45:06;135.83;;;61.77;;
19923;SDS011;10124;53.068;18.224;2023-02-15T04:47:34;144.30;;;63.87;;
19923;SDS011;10124;53.068;18.224;2023-02-15T04:50:02;143.60;;;63.80;;
19923;SDS011;10124;53.068;18.224;2023-02-15T04:52:30;133.77;;;62.73;;
19923;SDS011;10124;53.068;18.224;2023-02-15T04:54:59;149.87;;;64.77;;
19923;SDS011;10124;53.068;18.224;2023-02-15T04:57:26;145.63;;;63.57;;
19923;SDS011;10124;53.068;18.224;2023-02-15T04:59:54;140.37;;;62.67;;
19923;SDS011;10124;53.068;18.224;2023-02-15T05:02:23;137.20;;;62.07;;
19923;SDS011;10124;53.068;18.224;2023-02-15T05:04:52;149.70;;;63.53;;
19923;SDS011;10124;53.068;18.224;2023-02-15T05:07:19;143.47;;;61.67;;
19923;SDS011;10124;53.068;18.224;2023-02-15T05:09:48;148.47;;;65.30;;
19923;SDS011;10124;53.068;18.224;2023-02-15T05:12:16;151.07;;;66.00;;
19923;SDS011;10124;53.068;18.224;2023-02-15T05:14:44;150.83;;;64.97;;
19923;SDS011;10124;53.068;18.224;2023-02-15T05:17:12;147.17;;;65.20;;
19923;SDS011;10124;53.068;18.224;2023-02-15T05:19:40;140.70;;;63.37;;
19923;SDS011;10124;53.068;18.224;2023-02-15T05:22:08;147.97;;;63.30;;
19923;SDS011;10124;53.068;18.224;2023-02-15T05:24:36;135.33;;;61.60;;
19923;SDS011;10124;53.068;18.224;2023-02-15T05:27:33;134.97;;;58.60;;
19923;SDS011;10124;53.068;18.224;2023-02-15T05:30:20;165.40;;;66.40;;
19923;SDS011;10124;53.068;18.224;2023-02-15T05:32:49;138.37;;;63.20;;
19923;SDS011;10124;53.068;18.224;2023-02-15T05:35:17;152.60;;;64.63;;
19923;SDS011;10124;53.068;18.224;2023-02-15T05:37:45;132.53;;;59.73;;
19923;SDS011;10124;53.068;18.224;2023-02-15T05:40:13;130.00;;;62.97;;
19923;SDS011;10124;53.068;18.224;2023-02-15T05:42:41;134.60;;;62.03;;
19923;SDS011;10124;53.068;18.224;2023-02-15T05:45:09;144.33;;;60.43;;
19923;SDS011;10124;53.068;18.224;2023-02-15T05:47:37;145.17;;;62.70;;
19923;SDS011;10124;53.068;18.224;2023-02-15T05:50:06;143.93;;;64.00;;
19923;SDS011;10124;53.068;18.224;2023-02-15T05:52:34;138.30;;;58.67;;
19923;SDS011;10124;53.068;18.224;2023-02-15T05:55:03;131.23;;;58.53;;
19923;SDS011;10124;53.068;18.224;2023-02-15T05:57:31;127.13;;;62.43;;
19923;SDS011;10124;53.068;18.224;2023-02-15T06:00:01;145.40;;;60.47;;
19923;SDS011;10124;53.068;18.224;2023-02-15T06:02:37;125.83;;;58.60;;
19923;SDS011;10124;53.068;18.224;2023-02-15T06:05:06;138.63;;;62.00;;
19923;SDS011;10124;53.068;18.224;2023-02-15T06:07:34;129.37;;;59.50;;
19923;SDS011;10124;53.068;18.224;2023-02-15T06:10:03;130.87;;;60.47;;
19923;SDS011;10124;53.068;18.224;2023-02-15T06:12:31;128.00;;;61.17;;
19923;SDS011;10124;53.068;18.224;2023-02-15T06:14:59;137.00;;;61.50;;
19923;SDS011;10124;53.068;18.224;2023-02-15T06:17:28;133.10;;;59.93;;
19923;SDS011;10124;53.068;18.224;2023-02-15T06:19:56;130.90;;;59.23;;
19923;SDS011;10124;53.068;18.224;2023-02-15T06:22:24;124.50;;;59.80;;
19923;SDS011;10124;53.068;18.224;2023-02-15T06:24:52;129.10;;;58.63;;
19923;SDS011;10124;53.068;18.224;2023-02-15T06:27:20;129.27;;;58.27;;
19923;SDS011;10124;53.068;18.224;2023-02-15T06:29:48;123.23;;;57.33;;
19923;SDS011;10124;53.068;18.224;2023-02-15T06:32:16;126.40;;;60.20;;
19923;SDS011;10124;53.068;18.224;2023-02-15T06:34:45;126.93;;;57.07;;
19923;SDS011;10124;53.068;18.224;2023-02-15T06:37:14;124.80;;;59.63;;
19923;SDS011;10124;53.068;18.224;2023-02-15T06:39:42;123.80;;;60.63;;
19923;SDS011;10124;53.068;18.224;2023-02-15T06:42:11;118.27;;;54.73;;
19923;SDS011;10124;53.068;18.224;2023-02-15T06:44:39;111.33;;;57.77;;
19923;SDS011;10124;53.068;18.224;2023-02-15T06:47:07;109.80;;;56.63;;
19923;SDS011;10124;53.068;18.224;2023-02-15T06:49:35;128.43;;;59.07;;
19923;SDS011;10124;53.068;18.224;2023-02-15T06:52:03;123.67;;;59.27;;
19923;SDS011;10124;53.068;18.224;2023-02-15T06:54:31;104.33;;;53.87;;
19923;SDS011;10124;53.068;18.224;2023-02-15T06:56:59;116.87;;;56.13;;
19923;SDS011;10124;53.068;18.224;2023-02-15T06:59:27;131.83;;;60.03;;
19923;SDS011;10124;53.068;18.224;2023-02-15T07:01:56;117.20;;;57.83;;
19923;SDS011;10124;53.068;18.224;2023-02-15T07:04:24;122.60;;;60.50;;
19923;SDS011;10124;53.068;18.224;2023-02-15T07:06:51;119.97;;;60.57;;
19923;SDS011;10124;53.068;18.224;2023-02-15T07:09:20;126.53;;;65.10;;
19923;SDS011;10124;53.068;18.224;2023-02-15T07:11:48;125.63;;;64.33;;
19923;SDS011;10124;53.068;18.224;2023-02-15T07:14:35;128.53;;;63.97;;
19923;SDS011;10124;53.068;18.224;2023-02-15T07:17:03;118.73;;;59.33;;
19923;SDS011;10124;53.068;18.224;2023-02-15T07:19:40;123.53;;;62.40;;
19923;SDS011;10124;53.068;18.224;2023-02-15T07:22:08;127.27;;;63.80;;
19923;SDS011;10124;53.068;18.224;2023-02-15T07:24:36;133.87;;;62.13;;
19923;SDS011;10124;53.068;18.224;2023-02-15T07:27:06;125.27;;;61.40;;
19923;SDS011;10124;53.068;18.224;2023-02-15T07:29:39;115.43;;;60.57;;
19923;SDS011;10124;53.068;18.224;2023-02-15T07:32:07;112.50;;;60.23;;
19923;SDS011;10124;53.068;18.224;2023-02-15T07:34:36;115.03;;;63.30;;
19923;SDS011;10124;53.068;18.224;2023-02-15T07:37:04;106.87;;;57.93;;
19923;SDS011;10124;53.068;18.224;2023-02-15T07:39:32;121.63;;;63.10;;
19923;SDS011;10124;53.068;18.224;2023-02-15T07:42:01;103.73;;;59.73;;
19923;SDS011;10124;53.068;18.224;2023-02-15T07:44:30;111.73;;;60.30;;
19923;SDS011;10124;53.068;18.224;2023-02-15T07:46:58;113.70;;;59.80;;
19923;SDS011;10124;53.068;18.224;2023-02-15T07:49:27;108.37;;;60.93;;
19923;SDS011;10124;53.068;18.224;2023-02-15T07:51:55;97.47;;;53.17;;
19923;SDS011;10124;53.068;18.224;2023-02-15T07:54:23;112.97;;;59.20;;
19923;SDS011;10124;53.068;18.224;2023-02-15T07:56:51;105.27;;;57.80;;
19923;SDS011;10124;53.068;18.224;2023-02-15T07:59:19;97.07;;;56.47;;
19923;SDS011;10124;53.068;18.224;2023-02-15T08:01:47;105.00;;;55.67;;
19923;SDS011;10124;53.068;18.224;2023-02-15T08:04:16;98.93;;;54.90;;
19923;SDS011;10124;53.068;18.224;2023-02-15T08:06:45;96.07;;;52.27;;
19923;SDS011;10124;53.068;18.224;2023-02-15T08:09:13;86.23;;;53.30;;
19923;SDS011;10124;53.068;18.224;2023-02-15T08:11:41;86.60;;;51.77;;
19923;SDS011;10124;53.068;18.224;2023-02-15T08:14:11;81.77;;;51.77;;
19923;SDS011;10124;53.068;18.224;2023-02-15T08:16:41;93.73;;;52.83;;
19923;SDS011;10124;53.068;18.224;2023-02-15T08:19:11;89.03;;;51.80;;
19923;SDS011;10124;53.068;18.224;2023-02-15T08:21:45;83.20;;;49.17;;
19923;SDS011;10124;53.068;18.224;2023-02-15T08:24:16;73.87;;;46.73;;
19923;SDS011;10124;53.068;18.224;2023-02-15T08:26:45;82.60;;;51.23;;
19923;SDS011;10124;53.068;18.224;2023-02-15T08:29:15;76.70;;;48.83;;
19923;SDS011;10124;53.068;18.224;2023-02-15T08:31:44;78.77;;;46.33;;
19923;SDS011;10124;53.068;18.224;2023-02-15T08:34:15;77.57;;;47.03;;
19923;SDS011;10124;53.068;18.224;2023-02-15T08:36:44;81.07;;;46.10;;
19923;SDS011;10124;53.068;18.224;2023-02-15T08:39:12;76.27;;;47.03;;
19923;SDS011;10124;53.068;18.224;2023-02-15T08:41:42;70.47;;;43.97;;
19923;SDS011;10124;53.068;18.224;2023-02-15T08:44:12;77.83;;;45.97;;
19923;SDS011;10124;53.068;18.224;2023-02-15T08:46:40;74.13;;;44.07;;
19923;SDS011;10124;53.068;18.224;2023-02-15T08:49:09;74.87;;;44.00;;
19923;SDS011;10124;53.068;18.224;2023-02-15T08:51:41;73.40;;;45.60;;
19923;SDS011;10124;53.068;18.224;2023-02-15T08:54:10;80.80;;;47.10;;
19923;SDS011;10124;53.068;18.224;2023-02-15T08:56:40;78.00;;;45.57;;
19923;SDS011;10124;53.068;18.224;2023-02-15T08:59:16;72.40;;;43.83;;
19923;SDS011;10124;53.068;18.224;2023-02-15T09:01:49;69.00;;;43.83;;
19923;SDS011;10124;53.068;18.224;2023-02-15T09:04:18;73.00;;;45.53;;
19923;SDS011;10124;53.068;18.224;2023-02-15T09:06:47;64.80;;;42.47;;
19923;SDS011;10124;53.068;18.224;2023-02-15T09:09:16;67.77;;;41.47;;
19923;SDS011;10124;53.068;18.224;2023-02-15T09:11:45;74.93;;;42.40;;
19923;SDS011;10124;53.068;18.224;2023-02-15T09:14:18;71.27;;;43.03;;
19923;SDS011;10124;53.068;18.224;2023-02-15T09:16:48;68.67;;;43.53;;
19923;SDS011;10124;53.068;18.224;2023-02-15T09:19:18;62.63;;;41.57;;
19923;SDS011;10124;53.068;18.224;2023-02-15T09:21:47;62.83;;;40.83;;
19923;SDS011;10124;53.068;18.224;2023-02-15T09:24:15;57.03;;;40.00;;
19923;SDS011;10124;53.068;18.224;2023-02-15T09:26:44;57.03;;;37.53;;
19923;SDS011;10124;53.068;18.224;2023-02-15T09:29:14;56.57;;;36.67;;
19923;SDS011;10124;53.068;18.224;2023-02-15T09:31:44;61.73;;;38.53;;
19923;SDS011;10124;53.068;18.224;2023-02-15T09:34:13;57.57;;;37.23;;
19923;SDS011;10124;53.068;18.224;2023-02-15T09:36:44;55.70;;;37.53;;
19923;SDS011;10124;53.068;18.224;2023-02-15T09:39:13;55.67;;;34.53;;
19923;SDS011;10124;53.068;18.224;2023-02-15T09:47:36;52.97;;;36.60;;
19923;SDS011;10124;53.068;18.224;2023-02-15T09:59:08;62.33;;;43.63;;
19923;SDS011;10124;53.068;18.224;2023-02-15T10:04:54;66.13;;;44.67;;
19923;SDS011;10124;53.068;18.224;2023-02-15T10:07:51;65.27;;;43.47;;
19923;SDS011;10124;53.068;18.224;2023-02-15T10:13:37;64.47;;;44.43;;
19923;SDS011;10124;53.068;18.224;2023-02-15T10:16:28;60.30;;;43.13;;
19923;SDS011;10124;53.068;18.224;2023-02-15T10:19:16;76.23;;;45.50;;
19923;SDS011;10124;53.068;18.224;2023-02-15T10:22:03;70.33;;;46.33;;
19923;SDS011;10124;53.068;18.224;2023-02-15T10:27:19;69.50;;;45.07;;
19923;SDS011;10124;53.068;18.224;2023-02-15T10:32:45;67.67;;;45.07;;
19923;SDS011;10124;53.068;18.224;2023-02-15T10:49:07;64.93;;;45.40;;
19923;SDS011;10124;53.068;18.224;2023-02-15T10:54:37;63.80;;;44.50;;
19923;SDS011;10124;53.068;18.224;2023-02-15T10:57:34;65.60;;;44.83;;
19923;SDS011;10124;53.068;18.224;2023-02-15T11:00:02;67.40;;;47.07;;
19923;SDS011;10124;53.068;18.224;2023-02-15T11:07:57;62.17;;;42.67;;
19923;SDS011;10124;53.068;18.224;2023-02-15T11:10:35;64.53;;;44.73;;
19923;SDS011;10124;53.068;18.224;2023-02-15T11:13:14;62.77;;;45.13;;
19923;SDS011;10124;53.068;18.224;2023-02-15T11:15:45;78.70;;;48.17;;
19923;SDS011;10124;53.068;18.224;2023-02-15T11:21:07;72.37;;;47.97;;
19923;SDS011;10124;53.068;18.224;2023-02-15T11:23:52;65.67;;;44.90;;
19923;SDS011;10124;53.068;18.224;2023-02-15T11:26:33;62.83;;;43.93;;
19923;SDS011;10124;53.068;18.224;2023-02-15T11:29:13;65.67;;;44.60;;
19923;SDS011;10124;53.068;18.224;2023-02-15T11:31:54;62.40;;;43.33;;
19923;SDS011;10124;53.068;18.224;2023-02-15T11:35:32;69.43;;;44.23;;
19923;SDS011;10124;53.068;18.224;2023-02-15T11:37:41;68.03;;;43.80;;
19923;SDS011;10124;53.068;18.224;2023-02-15T11:40:23;71.30;;;46.50;;
19923;SDS011;10124;53.068;18.224;2023-02-15T11:42:56;63.03;;;43.70;;
19923;SDS011;10124;53.068;18.224;2023-02-15T11:45:33;67.67;;;43.80;;
19923;SDS011;10124;53.068;18.224;2023-02-15T11:48:08;68.97;;;45.07;;
19923;SDS011;10124;53.068;18.224;2023-02-15T11:50:39;69.43;;;42.60;;
19923;SDS011;10124;53.068;18.224;2023-02-15T11:53:19;71.20;;;44.53;;
19923;SDS011;10124;53.068;18.224;2023-02-15T11:55:54;67.50;;;43.47;;
19923;SDS011;10124;53.068;18.224;2023-02-15T11:58:26;70.33;;;44.30;;
19923;SDS011;10124;53.068;18.224;2023-02-15T12:03:59;70.73;;;46.37;;
19923;SDS011;10124;53.068;18.224;2023-02-15T12:07:00;73.97;;;48.63;;
19923;SDS011;10124;53.068;18.224;2023-02-15T12:09:35;72.57;;;47.57;;
19923;SDS011;10124;53.068;18.224;2023-02-15T12:14:54;68.07;;;44.93;;
19923;SDS011;10124;53.068;18.224;2023-02-15T12:17:29;71.13;;;47.83;;
19923;SDS011;10124;53.068;18.224;2023-02-15T12:20:07;79.60;;;47.10;;
19923;SDS011;10124;53.068;18.224;2023-02-15T12:22:52;80.87;;;48.33;;
19923;SDS011;10124;53.068;18.224;2023-02-15T12:28:04;72.10;;;46.87;;
19923;SDS011;10124;53.068;18.224;2023-02-15T12:30:45;78.93;;;48.17;;
19923;SDS011;10124;53.068;18.224;2023-02-15T12:33:57;78.13;;;48.37;;
19923;SDS011;10124;53.068;18.224;2023-02-15T12:36:14;76.60;;;49.10;;
19923;SDS011;10124;53.068;18.224;2023-02-15T12:49:35;89.97;;;53.77;;
19923;SDS011;10124;53.068;18.224;2023-02-15T12:52:04;83.70;;;50.53;;
19923;SDS011;10124;53.068;18.224;2023-02-15T12:54:53;79.57;;;50.73;;
19923;SDS011;10124;53.068;18.224;2023-02-15T12:57:22;76.17;;;49.27;;
19923;SDS011;10124;53.068;18.224;2023-02-15T12:59:57;80.37;;;50.03;;
19923;SDS011;10124;53.068;18.224;2023-02-15T13:02:31;80.93;;;51.97;;
19923;SDS011;10124;53.068;18.224;2023-02-15T13:08:20;85.33;;;52.50;;
19923;SDS011;10124;53.068;18.224;2023-02-15T13:10:59;82.77;;;51.97;;
19923;SDS011;10124;53.068;18.224;2023-02-15T13:13:31;85.73;;;54.70;;
19923;SDS011;10124;53.068;18.224;2023-02-15T13:16:05;86.47;;;53.23;;
19923;SDS011;10124;53.068;18.224;2023-02-15T13:18:43;81.50;;;51.97;;
19923;SDS011;10124;53.068;18.224;2023-02-15T13:23:44;80.30;;;51.00;;
19923;SDS011;10124;53.068;18.224;2023-02-15T13:26:16;92.00;;;54.40;;
19923;SDS011;10124;53.068;18.224;2023-02-15T13:28:55;86.70;;;52.73;;
19923;SDS011;10124;53.068;18.224;2023-02-15T13:31:27;91.97;;;55.67;;
19923;SDS011;10124;53.068;18.224;2023-02-15T13:34:36;82.17;;;54.13;;
19923;SDS011;10124;53.068;18.224;2023-02-15T13:59:28;88.50;;;52.77;;
19923;SDS011;10124;53.068;18.224;2023-02-15T14:02:28;91.33;;;52.40;;
19923;SDS011;10124;53.068;18.224;2023-02-15T14:18:24;91.20;;;54.50;;
19923;SDS011;10124;53.068;18.224;2023-02-15T14:21:19;94.20;;;55.50;;
19923;SDS011;10124;53.068;18.224;2023-02-15T14:24:08;95.53;;;56.77;;
19923;SDS011;10124;53.068;18.224;2023-02-15T14:32:07;98.27;;;58.17;;
19923;SDS011;10124;53.068;18.224;2023-02-15T14:37:13;96.73;;;59.00;;
19923;SDS011;10124;53.068;18.224;2023-02-15T14:42:58;106.53;;;61.83;;
19923;SDS011;10124;53.068;18.224;2023-02-15T14:45:42;98.90;;;58.30;;
19923;SDS011;10124;53.068;18.224;2023-02-15T14:48:20;98.50;;;59.63;;
19923;SDS011;10124;53.068;18.224;2023-02-15T14:51:00;105.53;;;61.10;;
19923;SDS011;10124;53.068;18.224;2023-02-15T14:53:33;102.50;;;64.90;;
19923;SDS011;10124;53.068;18.224;2023-02-15T14:58:54;93.03;;;58.43;;
19923;SDS011;10124;53.068;18.224;2023-02-15T15:01:27;92.03;;;56.07;;
19923;SDS011;10124;53.068;18.224;2023-02-15T15:04:02;84.10;;;52.13;;
19923;SDS011;10124;53.068;18.224;2023-02-15T15:06:33;93.60;;;54.10;;
19923;SDS011;10124;53.068;18.224;2023-02-15T15:09:10;87.80;;;55.33;;
19923;SDS011;10124;53.068;18.224;2023-02-15T15:11:50;92.23;;;54.47;;
19923;SDS011;10124;53.068;18.224;2023-02-15T15:17:03;93.27;;;55.70;;
19923;SDS011;10124;53.068;18.224;2023-02-15T15:22:19;94.37;;;57.07;;
19923;SDS011;10124;53.068;18.224;2023-02-15T15:24:52;98.23;;;56.87;;
19923;SDS011;10124;53.068;18.224;2023-02-15T15:35:35;93.40;;;58.67;;
19923;SDS011;10124;53.068;18.224;2023-02-15T15:49:54;97.63;;;57.40;;
19923;SDS011;10124;53.068;18.224;2023-02-15T15:52:24;99.47;;;58.03;;
19923;SDS011;10124;53.068;18.224;2023-02-15T15:54:55;100.73;;;58.73;;
19923;SDS011;10124;53.068;18.224;2023-02-15T15:57:33;96.60;;;57.57;;
19923;SDS011;10124;53.068;18.224;2023-02-15T16:00:04;101.47;;;60.90;;
19923;SDS011;10124;53.068;18.224;2023-02-15T16:03:15;101.00;;;60.73;;
19923;SDS011;10124;53.068;18.224;2023-02-15T16:05:47;101.10;;;59.50;;
19923;SDS011;10124;53.068;18.224;2023-02-15T16:10:55;92.80;;;58.10;;
19923;SDS011;10124;53.068;18.224;2023-02-15T16:13:23;94.20;;;57.40;;
19923;SDS011;10124;53.068;18.224;2023-02-15T16:15:52;90.27;;;55.17;;
19923;SDS011;10124;53.068;18.224;2023-02-15T16:18:25;87.40;;;54.80;;
19923;SDS011;10124;53.068;18.224;2023-02-15T16:20:54;92.63;;;56.57;;
19923;SDS011;10124;53.068;18.224;2023-02-15T16:23:43;87.80;;;54.37;;
19923;SDS011;10124;53.068;18.224;2023-02-15T16:29:26;91.60;;;55.80;;
19923;SDS011;10124;53.068;18.224;2023-02-15T16:31:59;95.83;;;56.27;;
19923;SDS011;10124;53.068;18.224;2023-02-15T16:34:57;95.37;;;55.33;;
19923;SDS011;10124;53.068;18.224;2023-02-15T16:37:27;98.90;;;57.50;;
19923;SDS011;10124;53.068;18.224;2023-02-15T16:40:00;100.03;;;55.53;;
19923;SDS011;10124;53.068;18.224;2023-02-15T16:42:28;98.50;;;57.10;;
19923;SDS011;10124;53.068;18.224;2023-02-15T16:47:41;102.87;;;56.20;;
19923;SDS011;10124;53.068;18.224;2023-02-15T16:53:18;101.07;;;58.23;;
19923;SDS011;10124;53.068;18.224;2023-02-15T16:55:52;100.13;;;56.47;;
19923;SDS011;10124;53.068;18.224;2023-02-15T16:58:25;102.37;;;59.10;;
19923;SDS011;10124;53.068;18.224;2023-02-15T17:01:06;107.17;;;58.37;;
19923;SDS011;10124;53.068;18.224;2023-02-15T17:03:36;106.90;;;59.73;;
19923;SDS011;10124;53.068;18.224;2023-02-15T17:06:18;105.73;;;61.00;;
19923;SDS011;10124;53.068;18.224;2023-02-15T17:08:50;110.07;;;59.17;;
19923;SDS011;10124;53.068;18.224;2023-02-15T17:11:18;101.93;;;60.43;;
19923;SDS011;10124;53.068;18.224;2023-02-15T17:16:45;129.77;;;65.90;;
19923;SDS011;10124;53.068;18.224;2023-02-15T17:19:31;130.53;;;68.80;;
19923;SDS011;10124;53.068;18.224;2023-02-15T17:22:14;121.33;;;65.73;;
19923;SDS011;10124;53.068;18.224;2023-02-15T17:24:48;112.70;;;61.90;;
19923;SDS011;10124;53.068;18.224;2023-02-15T17:27:24;115.10;;;64.27;;
19923;SDS011;10124;53.068;18.224;2023-02-15T17:29:55;113.63;;;63.17;;
19923;SDS011;10124;53.068;18.224;2023-02-15T17:32:26;120.10;;;63.73;;
19923;SDS011;10124;53.068;18.224;2023-02-15T17:40:14;120.63;;;65.47;;
19923;SDS011;10124;53.068;18.224;2023-02-15T17:42:54;119.13;;;65.30;;
19923;SDS011;10124;53.068;18.224;2023-02-15T17:45:22;121.37;;;66.60;;
19923;SDS011;10124;53.068;18.224;2023-02-15T17:47:57;135.77;;;68.93;;
19923;SDS011;10124;53.068;18.224;2023-02-15T17:50:26;134.83;;;70.67;;
19923;SDS011;10124;53.068;18.224;2023-02-15T17:52:55;127.43;;;68.47;;
19923;SDS011;10124;53.068;18.224;2023-02-15T17:55:25;130.27;;;68.77;;
19923;SDS011;10124;53.068;18.224;2023-02-15T17:58:02;134.00;;;69.83;;
19923;SDS011;10124;53.068;18.224;2023-02-15T18:00:43;125.10;;;67.53;;